Flight Track Log - Related Links

Times and Time Zones

All times are in EDT time to prevent confusion due to time zone crossing. See the VH-SCC flight status page for this flight to view local times or setup timezone preferences in your user account.

Time Position Orientation Groundspeed Altitude Reporting Facility
EDT Latitude Longitude Course Direction KTS MPH feet Rate Location/Type
Sun 12:19:11 AM -33.8452 150.9409 141° Southeast 14,500  Level Aus ATC (Calculated)
Sun 12:19:35 AM -33.9261 151.0211 331° Northwest 159 183 1,400 -13,017 Descending Aus ATC (RADAR)
Sun 12:20:10 AM -33.9023 151.0052 331° Northwest 187 215 1,700 1,116 Climbing Aus ATC (RADAR)
Sun 12:21:01 AM -33.8764 150.9591 304° West 193 222 3,000 918 Climbing Aus ATC (RADAR)
Sun 12:21:35 AM -33.8556 150.9242 306° West 217 250 3,000 684 Level Aus ATC (RADAR)
Sun 12:22:20 AM -33.8268 150.8777 307° West 227 261 3,900 2,564 Climbing Aus ATC (RADAR)
Sun 12:23:25 AM -33.7638 150.8459 337° Northwest 204 235 7,700 3,060 Climbing Aus ATC (RADAR)
Sun 12:24:00 AM -33.7303 150.8356 346° North 208 239 9,000 2,240 Climbing Aus ATC (RADAR)
Sun 12:24:40 AM -33.6848 150.8229 347° North 246 283 10,500 2,682 Climbing Aus ATC (RADAR)
Sun 12:25:25 AM -33.6293 150.8055 345° North 261 300 12,800 3,300 Climbing Aus ATC (RADAR)
Sun 12:26:20 AM -33.5650 150.7860 346° North 258 297 16,000 3,257 Climbing Aus ATC (RADAR)
Sun 12:27:10 AM -33.5084 150.7692 346° North 250 288 18,500 2,824 Climbing Aus ATC (RADAR)
Sun 12:27:45 AM -33.4673 150.7562 345° North 244 281 20,000 2,475 Climbing Aus ATC (RADAR)
Sun 12:28:30 AM -33.4141 150.7401 346° North 254 292 21,800 2,475 Climbing Aus ATC (RADAR)
Sun 12:29:05 AM -33.3735 150.7273 345° North 265 305 23,300 2,657 Climbing Aus ATC (RADAR)
Sun 12:29:40 AM -33.3322 150.7149 346° North 262 302 24,900 2,612 Climbing Aus ATC (RADAR)
Sun 12:30:30 AM -33.2759 150.6978 346° North 249 287 27,000 1,657 Climbing Aus ATC (RADAR)
Sun 12:31:25 AM -33.2085 150.6782 346° North 279 321 27,800 914 Climbing Aus ATC (RADAR)
Sun 12:32:15 AM -33.1356 150.6551 345° North 327 376 28,600 1,271 Climbing Aus ATC (RADAR)
Sun 12:32:50 AM -33.0820 150.6396 346° North 338 389 29,600 2,000 Climbing Aus ATC (RADAR)
Sun 12:33:45 AM -33.0003 150.6144 345° North 329 379 31,600 2,329 Climbing Aus ATC (RADAR)
Sun 12:34:15 AM -32.9579 150.6023 347° North 317 365 32,900 1,753 Climbing Aus ATC (RADAR)
Sun 12:35:14 AM -32.8765 150.5777 346° North 305 351 34,200 1,096 Climbing Aus ATC (RADAR)
Sun 12:35:59 AM -32.8139 150.5585 346° North 311 358 34,800 750 Climbing Aus ATC (RADAR)
Sun 12:36:34 AM -32.7636 150.5441 346° North 320 368 35,200 988 Climbing Aus ATC (RADAR)
Sun 12:37:24 AM -32.6919 150.5222 346° North 318 366 36,200 1,036 Climbing Aus ATC (RADAR)
Sun 12:38:24 AM -32.6084 150.4976 346° North 311 358 37,100 914 Climbing Aus ATC (RADAR)
Sun 12:39:09 AM -32.5452 150.4789 346° North 313 360 37,800 840 Climbing Aus ATC (RADAR)
Sun 12:40:04 AM -32.4697 150.4557 345° North 304 350 38,500 540 Climbing Aus ATC (RADAR)
Sun 12:40:49 AM -32.4067 150.4379 347° North 311 358 38,700 450 Climbing Aus ATC (RADAR)
Sun 12:41:24 AM -32.3575 150.4221 345° North 315 362 39,100 600 Climbing Aus ATC (RADAR)
Sun 12:41:59 AM -32.3084 150.4084 347° North 312 359 39,400 560 Climbing Aus ATC (RADAR)
Sun 12:42:39 AM -32.2530 150.3915 346° North 310 357 39,800 480 Climbing Aus ATC (RADAR)
Sun 12:43:14 AM -32.2048 150.3778 346° North 307 353 40,000 267 Climbing Aus ATC (RADAR)
Sun 12:44:09 AM -32.1284 150.3550 346° North 312 359 40,200 104 Climbing Aus ATC (RADAR)
Sun 12:45:09 AM -32.0425 150.3293 346° North 322 371 40,200  Level Aus ATC (RADAR)
Sun 12:45:54 AM -31.9757 150.3103 346° North 331 381 40,200  Level Aus ATC (RADAR)
Sun 12:46:29 AM -31.9228 150.2942 346° North 337 388 40,200  Level Aus ATC (RADAR)
Sun 12:47:19 AM -31.8459 150.2714 346° North 344 396 40,200  Level Aus ATC (RADAR)
Sun 12:48:18 AM -31.7504 150.2440 346° North 344 396 40,200  Level Aus ATC (RADAR)
Sun 12:49:24 AM -31.6505 150.2145 346° North 348 400 40,200  Level Aus ATC (RADAR)
Sun 12:50:24 AM -31.5577 150.1871 346° North 343 395 40,200  Level Aus ATC (RADAR)
Sun 12:51:09 AM -31.4890 150.1670 346° North 340 391 40,200  Level Aus ATC (RADAR)
Sun 12:51:44 AM -31.4354 150.1515 346° North 342 394 40,200  Level Aus ATC (RADAR)
Sun 12:52:18 AM -31.3820 150.1362 346° North 339 390 40,200  Level Aus ATC (RADAR)
Sun 12:52:53 AM -31.3288 150.1204 346° North 341 392 40,200  Level Aus ATC (RADAR)
Sun 12:53:28 AM -31.2757 150.1057 347° North 337 388 40,200  Level Aus ATC (RADAR)
Sun 12:54:19 AM -31.1998 150.0831 346° North 338 389 40,200  Level Aus ATC (RADAR)
Sun 12:55:13 AM -31.1161 150.0591 346° North 338 389 40,200  Level Aus ATC (RADAR)
Sun 12:56:07 AM -31.0314 150.0348 346° North 333 383 40,200  Level Aus ATC (RADAR)
Sun 12:56:38 AM -30.9873 150.0218 346° North 338 389 40,200  Level Aus ATC (RADAR)
Sun 12:57:28 AM -30.9114 150.0005 347° North 337 388 40,200  Level Aus ATC (RADAR)
Sun 12:58:28 AM -30.8201 149.9744 346° North 339 390 40,200  Level Aus ATC (RADAR)
Sun 12:59:17 AM -30.7428 149.9513 346° North 334 384 40,200  Level Aus ATC (RADAR)
Sun 01:00:15 AM -30.6602 149.9281 346° North 339 390 40,200  Level Aus ATC (RADAR)
Sun 01:00:57 AM -30.5902 149.9084 346° North 335 386 40,200  Level Aus ATC (RADAR)
Sun 01:01:28 AM -30.5462 149.8951 345° North 339 390 40,200  Level Aus ATC (RADAR)
Sun 01:02:03 AM -30.4924 149.8804 347° North 341 392 40,200  Level Aus ATC (RADAR)
Sun 01:02:38 AM -30.4394 149.8652 346° North 339 390 40,200  Level Aus ATC (RADAR)
Sun 01:03:13 AM -30.3860 149.8500 346° North 340 391 40,200  Level Aus ATC (RADAR)
Sun 01:03:58 AM -30.3176 149.8306 346° North 338 389 40,200  Level Aus ATC (RADAR)
Sun 01:04:38 AM -30.2555 149.8167 349° North 341 392 40,200  Level Aus ATC (RADAR)
Sun 01:05:12 AM -30.2008 149.8063 351° North 342 394 40,200  Level Aus ATC (RADAR)
Sun 01:05:42 AM -30.1548 149.7954 348° North 340 391 40,200  Level Aus ATC (RADAR)
Sun 01:06:17 AM -30.1007 149.7838 350° North 340 391 40,200  Level Aus ATC (RADAR)
Sun 01:06:53 AM -30.0468 149.7727 350° North 339 390 40,200  Level Aus ATC (RADAR)
Sun 01:07:27 AM -29.9936 149.7606 349° North 336 387 40,200  Level Aus ATC (RADAR)
Sun 01:08:02 AM -29.9401 149.7499 350° North 335 386 40,200  Level Aus ATC (RADAR)
Sun 01:08:47 AM -29.8718 149.7348 349° North 334 384 40,200  Level Aus ATC (RADAR)
Sun 01:09:42 AM -29.7887 149.7174 350° North 332 382 40,200  Level Aus ATC (RADAR)
Sun 01:10:31 AM -29.7123 149.7006 349° North 330 380 40,200  Level Aus ATC (RADAR)
Sun 01:11:06 AM -29.6595 149.6893 349° North 329 379 40,200  Level Aus ATC (RADAR)
Sun 01:11:52 AM -29.5949 149.6725 347° North 326 375 40,200 57 Level Aus ATC (RADAR)
Sun 01:12:52 AM -29.5018 149.6564 351° North 336 387 40,300 57 Climbing Aus ATC (RADAR)
Sun 01:13:37 AM -29.4373 149.6366 345° North 327 376 40,300  Level Aus ATC (RADAR)
Sun 01:14:12 AM -29.3829 149.6273 352° North 332 382 40,300  Level Aus ATC (RADAR)
Sun 01:14:57 AM -29.3136 149.6143 351° North 336 387 40,300 -58 Level Aus ATC (RADAR)
Sun 01:15:56 AM -29.2199 149.5960 350° North 332 382 40,200  Descending Aus ATC (RADAR)
Sun 01:16:56 AM -29.1329 149.5736 347° North 332 382 40,300 63 Climbing Aus ATC (RADAR)
Sun 01:17:31 AM -29.0793 149.5625 350° North 335 386 40,300  Level Aus ATC (RADAR)
Sun 01:18:21 AM -29.0027 149.5473 350° North 336 387 40,300  Level Aus ATC (RADAR)
Sun 01:18:56 AM -28.9499 149.5351 349° North 334 384 40,300  Level Aus ATC (RADAR)
Sun 01:19:56 AM -28.8592 149.5150 349° North 332 382 40,300  Level Aus ATC (RADAR)
Sun 01:20:31 AM -28.8067 149.5027 348° North 331 381 40,300  Level Aus ATC (RADAR)
Sun 01:21:30 AM -28.7139 149.4867 351° North 335 386 40,300  Level Aus ATC (RADAR)
Sun 01:22:16 AM -28.6460 149.4723 349° North 332 382 40,300  Level Aus ATC (RADAR)
Sun 01:22:51 AM -28.5930 149.4613 350° North 333 383 40,300 -76 Level Aus ATC (RADAR)
Sun 01:23:35 AM -28.5250 149.4477 350° North 332 382 40,200 -53 Descending Aus ATC (RADAR)
Sun 01:24:45 AM -28.4195 149.4257 350° North 330 380 40,200  Level Aus ATC (RADAR)
Sun 01:25:15 AM -28.3755 149.4147 348° North 328 377 40,200  Level Aus ATC (RADAR)
Sun 01:25:50 AM -28.3236 149.4032 349° North 327 376 40,200 -86 Level Aus ATC (RADAR)
Sun 01:26:25 AM -28.2681 149.3977 355° North 325 374 40,100 -75 Descending Aus ATC (RADAR)
Sun 01:27:10 AM -28.2017 149.3823 348° North 325 374 40,100  Level Aus ATC (RADAR)
Sun 01:27:45 AM -28.1540 149.3638 341° North 314 361 40,100  Level Aus ATC (RADAR)
Sun 01:28:25 AM -28.0996 149.3424 341° North 311 358 40,100  Level Aus ATC (RADAR)
Sun 01:29:25 AM -28.0167 149.3125 342° North 312 359 40,100  Level Aus ATC (RADAR)
Sun 01:30:05 AM -27.9599 149.2948 345° North 315 362 40,100  Level Aus ATC (RADAR)
Sun 01:31:04 AM -27.8824 149.2626 340° North 300 345 40,100  Level Aus ATC (RADAR)
Sun 01:31:49 AM -27.8174 149.2394 342° North 311 358 40,100  Level Aus ATC (RADAR)
Sun 01:32:25 AM -27.7697 149.2221 342° North 309 356 40,100  Level Aus ATC (RADAR)
Sun 01:33:14 AM -27.7016 149.1976 342° North 306 352 40,100  Level Aus ATC (RADAR)
Sun 01:34:14 AM -27.6191 149.1674 342° North 315 362 40,100  Level Aus ATC (RADAR)
Sun 01:35:09 AM -27.5447 149.1407 342° North 306 352 40,100  Level Aus ATC (RADAR)
Sun 01:36:19 AM -27.4496 149.1059 342° North 314 361 40,100  Level Aus ATC (RADAR)
Sun 01:37:19 AM -27.3685 149.0760 342° North 308 354 40,100  Level Aus ATC (RADAR)
Sun 01:38:09 AM -27.3007 149.0537 344° North 306 352 40,100  Level Aus ATC (RADAR)
Sun 01:38:44 AM -27.2538 149.0353 341° North 304 350 40,100  Level Aus ATC (RADAR)
Sun 01:39:29 AM -27.1926 149.0140 343° North 306 352 40,100  Level Aus ATC (RADAR)
Sun 01:40:24 AM -27.1193 148.9875 342° North 303 349 40,100  Level Aus ATC (RADAR)
Sun 01:41:14 AM -27.0524 148.9634 342° North 300 345 40,100  Level Aus ATC (RADAR)
Sun 01:41:49 AM -27.0048 148.9462 342° North 307 353 40,100  Level Aus ATC (RADAR)
Sun 01:42:29 AM -26.9509 148.9270 342° North 304 350 40,100  Level Aus ATC (RADAR)
Sun 01:42:59 AM -26.9108 148.9124 342° North 303 349 40,100  Level Aus ATC (RADAR)
Sun 01:43:34 AM -26.8631 148.8955 342° North 306 352 40,100  Level Aus ATC (RADAR)
Sun 01:44:14 AM -26.8097 148.8763 342° North 302 348 40,100  Level Aus ATC (RADAR)
Sun 01:44:49 AM -26.7617 148.8599 343° North 307 353 40,100  Level Aus ATC (RADAR)
Sun 01:46:08 AM -26.6534 148.8214 342° North 309 356 40,100  Level Aus ATC (RADAR)
Sun 01:47:08 AM -26.5719 148.7920 342° North 310 357 40,100  Level Aus ATC (RADAR)
Sun 01:47:53 AM -26.5089 148.7727 345° North 318 366 40,100  Level Aus ATC (RADAR)
Sun 01:48:23 AM -26.4656 148.7654 351° North 317 365 40,100  Level Aus ATC (RADAR)
Sun 01:49:03 AM -26.4093 148.7540 350° North 308 354 40,100  Level Aus ATC (RADAR)
Sun 01:49:33 AM -26.3668 148.7444 348° North 311 358 40,100 -369 Level Aus ATC (RADAR)
Sun 01:50:08 AM -26.3158 148.7341 350° North 319 367 39,700 -738 Descending Aus ATC (RADAR)
Sun 01:50:38 AM -26.2726 148.7254 350° North 317 365 39,300 -857 Descending Aus ATC (RADAR)
Sun 01:51:18 AM -26.2164 148.7134 349° North 312 359 38,700 -800 Descending Aus ATC (RADAR)
Sun 01:51:53 AM -26.1681 148.7031 349° North 301 346 38,300 -720 Descending Aus ATC (RADAR)
Sun 01:52:33 AM -26.1162 148.6930 350° North 290 334 37,800 -771 Descending Aus ATC (RADAR)
Sun 01:53:03 AM -26.0771 148.6852 350° North 289 333 37,400 -840 Descending Aus ATC (RADAR)
Sun 01:54:13 AM -25.9890 148.6664 349° North 280 322 36,400 -864 Descending Aus ATC (RADAR)
Sun 01:55:08 AM -25.9213 148.6524 349° North 271 312 35,600 -887 Descending Aus ATC (RADAR)
Sun 01:56:08 AM -25.8462 148.6372 350° North 272 313 34,700 -764 Descending Aus ATC (RADAR)
Sun 01:56:58 AM -25.7839 148.6246 350° North 274 315 34,200 -379 Descending Aus ATC (RADAR)
Sun 01:57:43 AM -25.7317 148.6140 350° North 255 293 34,100 -75 Descending Aus ATC (RADAR)
Sun 01:58:18 AM -25.6891 148.6058 350° North 265 305 34,100  Level Aus ATC (RADAR)
Sun 01:58:53 AM -25.6466 148.5973 350° North 267 307 34,100  Level Aus ATC (RADAR)
Sun 01:59:28 AM -25.6039 148.5884 349° North 267 307 34,100  Level Aus ATC (RADAR)
Sun 02:00:06 AM -25.5599 148.5799 350° North 274 315 34,100  Level Aus ATC (RADAR)
Sun 02:01:11 AM -25.4840 148.5635 349° North 279 321 34,100  Level Aus ATC (RADAR)
Sun 02:02:08 AM -25.4145 148.5494 350° North 277 319 34,100  Level Aus ATC (RADAR)
Sun 02:02:55 AM -25.3566 148.5383 350° North 283 326 34,100  Level Aus ATC (RADAR)
Sun 02:03:29 AM -25.3183 148.5303 349° North 281 323 34,100  Level Aus ATC (RADAR)
Sun 02:04:18 AM -25.2537 148.5173 350° North 284 327 34,100  Level Aus ATC (RADAR)
Sun 02:05:22 AM -25.1626 148.4986 349° North 288 331 34,100  Level Aus ATC (RADAR)
Sun 02:06:17 AM -25.0777 148.4813 350° North 284 327 34,100  Level Aus ATC (RADAR)
Sun 02:07:07 AM -25.0119 148.4681 350° North 287 330 34,100  Level Aus ATC (RADAR)
Sun 02:07:52 AM -24.9533 148.4561 349° North 286 329 34,100  Level Aus ATC (RADAR)
Sun 02:08:27 AM -24.9073 148.4476 350° North 287 330 34,100 -320 Level Aus ATC (RADAR)
Sun 02:09:07 AM -24.8544 148.4362 349° North 291 335 33,700 -1,440 Descending Aus ATC (RADAR)
Sun 02:09:42 AM -24.8050 148.4270 350° North 308 354 32,300 -2,314 Descending Aus ATC (RADAR)
Sun 02:10:17 AM -24.7524 148.4164 350° North 327 376 31,000 -2,225 Descending Aus ATC (RADAR)
Sun 02:11:11 AM -24.6691 148.3995 350° North 334 384 29,000 -2,211 Descending Aus ATC (RADAR)
Sun 02:12:11 AM -24.5816 148.3810 349° North 321 369 26,800 -2,343 Descending Aus ATC (RADAR)
Sun 02:12:56 AM -24.5168 148.3689 350° North 316 364 24,900 -2,475 Descending Aus ATC (RADAR)
Sun 02:13:31 AM -24.4673 148.3583 349° North 313 360 23,500 -2,143 Descending Aus ATC (RADAR)
Sun 02:14:06 AM -24.4187 148.3490 350° North 306 352 22,400 -1,971 Descending Aus ATC (RADAR)
Sun 02:14:41 AM -24.3721 148.3394 349° North 295 339 21,200 -2,229 Descending Aus ATC (RADAR)
Sun 02:15:16 AM -24.3238 148.3302 350° North 301 346 19,800 -2,127 Descending Aus ATC (RADAR)
Sun 02:16:31 AM -24.2175 148.3088 350° North 316 364 17,300 -2,044 Descending Aus ATC (RADAR)
Sun 02:17:31 AM -24.1318 148.2915 350° North 313 360 15,200 -2,114 Descending Aus ATC (RADAR)
Sun 02:18:16 AM -24.0675 148.2790 350° North 313 360 13,600 -2,175 Descending Aus ATC (RADAR)
Sun 02:18:51 AM -24.0177 148.2688 349° North 312 359 12,300 -2,100 Descending Aus ATC (RADAR)
Sun 02:19:36 AM -23.9539 148.2569 350° North 312 359 10,800 -2,000 Descending Aus ATC (RADAR)
Sun 02:20:06 AM -23.9140 148.2484 349° North 295 339 9,800 -1,875 Descending Aus ATC (RADAR)
Sun 02:20:56 AM -23.8506 148.2360 350° North 277 319 8,300 -1,800 Descending Aus ATC (RADAR)
Sun 02:23:47 AM -23.5676 148.1792 345° North -2,912 Descending Aus ATC (Calculated)
Sun 02:25:00 AM -23.5675 148.1792 263° West  Level Estimated
Sun 02:26:00 AM -23.5675 148.1792 262° West  Level Estimated
Sun 02:27:00 AM -23.5675 148.1792 262° West  Level Estimated
Sun 02:28:00 AM -23.5675 148.1792 83° East  Level Estimated
Sun 02:29:00 AM -23.5675 148.1792 83° East  Level Estimated

Login

Don't have an account? Register now (free) for customized features, flight alerts, and more!